Time;durP1;ratioP1;P1;durP2;ratioP2;P2;SDS_P1;SDS_P2;PMS_P1;PMS_P2;Temp;Humidity;BMP_temperature;BMP_pressure;BME280_temperature;BME280_humidity;BME280_pressure;Samples;Min_cycle;Max_cycle;Signal;HPM_P1;HPM_P2
2021/05/08 00:00:02;;;;;;;1.72;1.62;;;;;;;19.28;44.64;100758.12;;;;-59
2021/05/08 00:03:02;;;;;;;1.67;1.57;;;;;;;19.27;44.62;100756.78;;;;-58
2021/05/08 00:06:05;;;;;;;1.66;1.51;;;;;;;19.26;44.65;100754.08;;;;-59
2021/05/08 00:09:02;;;;;;;1.61;1.51;;;;;;;19.23;44.62;100753.57;;;;-58
2021/05/08 00:12:02;;;;;;;1.59;1.49;;;;;;;19.23;44.63;100751.54;;;;-58
2021/05/08 00:15:02;;;;;;;1.63;1.53;;;;;;;19.22;44.65;100752.52;;;;-58
2021/05/08 00:18:02;;;;;;;2.20;1.55;;;;;;;19.20;44.66;100756.63;;;;-58
2021/05/08 00:21:02;;;;;;;1.70;1.60;;;;;;;19.19;44.65;100757.09;;;;-58
2021/05/08 00:24:04;;;;;;;1.70;1.60;;;;;;;19.19;44.62;100757.83;;;;-59
2021/05/08 00:27:02;;;;;;;1.64;1.54;;;;;;;19.18;44.63;100758.80;;;;-58
2021/05/08 00:30:02;;;;;;;1.69;1.59;;;;;;;19.16;44.66;100755.85;;;;-58
2021/05/08 00:33:02;;;;;;;1.70;1.60;;;;;;;19.15;44.67;100754.47;;;;-58
2021/05/08 00:36:02;;;;;;;2.80;1.58;;;;;;;19.14;44.63;100754.20;;;;-58
2021/05/08 00:39:02;;;;;;;1.81;1.71;;;;;;;19.13;44.65;100751.49;;;;-58
2021/05/08 00:42:02;;;;;;;1.67;1.57;;;;;;;19.11;44.67;100750.09;;;;-58
2021/05/08 00:45:02;;;;;;;1.60;1.50;;;;;;;19.11;44.63;100750.09;;;;-58
2021/05/08 00:48:02;;;;;;;1.67;1.57;;;;;;;19.09;44.67;100750.06;;;;-58
2021/05/08 00:51:02;;;;;;;1.73;1.63;;;;;;;19.08;44.66;100747.70;;;;-58
2021/05/08 00:54:02;;;;;;;1.58;1.48;;;;;;;19.07;44.66;100749.01;;;;-58
2021/05/08 00:57:02;;;;;;;1.51;1.41;;;;;;;19.06;44.67;100749.22;;;;-58
2021/05/08 01:00:02;;;;;;;1.60;1.50;;;;;;;19.04;44.67;100749.03;;;;-58
2021/05/08 01:03:02;;;;;;;1.60;1.50;;;;;;;19.04;44.67;100748.80;;;;-59
2021/05/08 01:06:02;;;;;;;1.61;1.51;;;;;;;19.02;44.66;100747.38;;;;-58
2021/05/08 01:09:02;;;;;;;1.63;1.50;;;;;;;19.02;44.69;100746.00;;;;-58
2021/05/08 01:12:02;;;;;;;1.65;1.55;;;;;;;19.00;44.65;100738.91;;;;-58
2021/05/08 01:15:02;;;;;;;1.84;1.70;;;;;;;19.00;44.66;100743.38;;;;-58
2021/05/08 01:18:02;;;;;;;1.68;1.58;;;;;;;18.98;44.64;100744.65;;;;-58
2021/05/08 01:21:02;;;;;;;1.60;1.50;;;;;;;18.98;44.66;100742.37;;;;-58
2021/05/08 01:24:02;;;;;;;1.69;1.59;;;;;;;18.96;44.65;100736.75;;;;-58
2021/05/08 01:27:02;;;;;;;1.60;1.50;;;;;;;18.96;44.68;100737.72;;;;-58
2021/05/08 01:30:02;;;;;;;1.56;1.46;;;;;;;18.95;44.63;100734.72;;;;-58
2021/05/08 01:33:02;;;;;;;1.60;1.49;;;;;;;18.94;44.64;100735.74;;;;-58
2021/05/08 01:36:02;;;;;;;1.61;1.51;;;;;;;18.93;44.67;100736.72;;;;-58
2021/05/08 01:39:02;;;;;;;1.59;1.49;;;;;;;18.92;44.63;100737.42;;;;-58
2021/05/08 01:42:02;;;;;;;1.67;1.57;;;;;;;18.91;44.62;100732.39;;;;-58
2021/05/08 01:45:02;;;;;;;1.65;1.50;;;;;;;18.90;44.65;100727.81;;;;-58
2021/05/08 01:48:02;;;;;;;1.69;1.59;;;;;;;18.90;44.67;100721.56;;;;-58
2021/05/08 01:51:02;;;;;;;1.81;1.50;;;;;;;18.88;44.65;100723.67;;;;-58
2021/05/08 01:54:02;;;;;;;1.68;1.58;;;;;;;18.88;44.67;100715.12;;;;-58
2021/05/08 01:57:02;;;;;;;1.68;1.58;;;;;;;18.88;44.63;100716.91;;;;-58
2021/05/08 02:00:02;;;;;;;1.60;1.50;;;;;;;18.86;44.64;100707.89;;;;-58
2021/05/08 02:03:02;;;;;;;1.73;1.63;;;;;;;18.85;44.63;100706.73;;;;-58
2021/05/08 02:06:02;;;;;;;1.63;1.53;;;;;;;18.84;44.67;100706.89;;;;-58
2021/05/08 02:09:02;;;;;;;1.54;1.44;;;;;;;18.83;44.67;100704.43;;;;-58
2021/05/08 02:12:02;;;;;;;1.49;1.39;;;;;;;18.82;44.70;100701.18;;;;-58
2021/05/08 02:15:02;;;;;;;1.60;1.50;;;;;;;18.81;44.62;100698.07;;;;-57
2021/05/08 02:18:02;;;;;;;1.62;1.51;;;;;;;18.80;44.66;100696.28;;;;-58
2021/05/08 02:21:02;;;;;;;1.85;1.70;;;;;;;18.80;44.68;100690.69;;;;-58
2021/05/08 02:24:02;;;;;;;1.50;1.40;;;;;;;18.79;44.67;100687.56;;;;-58
2021/05/08 02:27:02;;;;;;;1.55;1.43;;;;;;;18.78;44.65;100685.63;;;;-58
2021/05/08 02:30:02;;;;;;;1.69;1.59;;;;;;;18.77;44.68;100684.75;;;;-58
2021/05/08 02:33:02;;;;;;;1.50;1.40;;;;;;;18.76;44.64;100691.73;;;;-58
2021/05/08 02:36:02;;;;;;;1.67;1.57;;;;;;;18.75;44.68;100690.65;;;;-59
2021/05/08 02:39:02;;;;;;;1.55;1.45;;;;;;;18.75;44.69;100691.30;;;;-58
2021/05/08 02:42:02;;;;;;;1.63;1.53;;;;;;;18.74;44.66;100693.58;;;;-58
2021/05/08 02:45:02;;;;;;;1.57;1.47;;;;;;;18.74;44.70;100693.70;;;;-57
2021/05/08 02:48:02;;;;;;;1.59;1.49;;;;;;;18.72;44.68;100695.90;;;;-59
2021/05/08 02:51:02;;;;;;;1.68;1.58;;;;;;;18.72;44.67;100696.80;;;;-58
2021/05/08 02:54:02;;;;;;;1.50;1.40;;;;;;;18.71;44.67;100695.30;;;;-58
2021/05/08 02:57:02;;;;;;;1.75;1.65;;;;;;;18.70;44.68;100691.17;;;;-58
2021/05/08 03:00:02;;;;;;;1.60;1.50;;;;;;;18.69;44.68;100691.70;;;;-57
2021/05/08 03:03:02;;;;;;;1.40;1.30;;;;;;;18.68;44.64;100693.33;;;;-58
2021/05/08 03:06:02;;;;;;;1.63;1.53;;;;;;;18.68;44.63;100691.87;;;;-56
2021/05/08 03:09:02;;;;;;;1.65;1.55;;;;;;;18.67;44.67;100686.48;;;;-57
2021/05/08 03:12:02;;;;;;;1.60;1.50;;;;;;;18.66;44.65;100682.02;;;;-57
2021/05/08 03:15:02;;;;;;;1.66;1.56;;;;;;;18.65;44.69;100679.23;;;;-57
2021/05/08 03:18:02;;;;;;;1.60;1.50;;;;;;;18.65;44.67;100680.77;;;;-56
2021/05/08 03:21:02;;;;;;;1.59;1.49;;;;;;;18.65;44.66;100683.38;;;;-57
2021/05/08 03:24:02;;;;;;;1.60;1.50;;;;;;;18.64;44.63;100681.02;;;;-56
2021/05/08 03:27:02;;;;;;;1.60;1.50;;;;;;;18.63;44.69;100679.36;;;;-59
2021/05/08 03:30:02;;;;;;;1.66;1.56;;;;;;;18.61;44.62;100681.04;;;;-56
2021/05/08 03:33:02;;;;;;;1.52;1.42;;;;;;;18.63;44.67;100688.21;;;;-58
2021/05/08 03:36:02;;;;;;;1.50;1.40;;;;;;;18.61;44.61;100684.37;;;;-56
2021/05/08 03:39:02;;;;;;;1.53;1.43;;;;;;;18.61;44.64;100682.91;;;;-59
2021/05/08 03:42:02;;;;;;;1.59;1.49;;;;;;;18.60;44.67;100684.70;;;;-55
2021/05/08 03:45:02;;;;;;;1.47;1.37;;;;;;;18.59;44.62;100680.72;;;;-59
2021/05/08 03:48:02;;;;;;;1.63;1.53;;;;;;;18.58;44.68;100679.31;;;;-54
2021/05/08 03:51:02;;;;;;;1.50;1.40;;;;;;;18.58;44.65;100680.28;;;;-54
2021/05/08 03:54:02;;;;;;;1.59;1.49;;;;;;;18.57;44.65;100683.61;;;;-54
2021/05/08 03:57:02;;;;;;;1.51;1.41;;;;;;;18.56;44.64;100686.59;;;;-55
2021/05/08 04:00:02;;;;;;;1.58;1.48;;;;;;;18.56;44.63;100689.75;;;;-54
2021/05/08 04:03:02;;;;;;;1.50;1.40;;;;;;;18.55;44.62;100688.83;;;;-59
2021/05/08 04:06:02;;;;;;;1.62;1.52;;;;;;;18.54;44.62;100686.88;;;;-56
2021/05/08 04:09:02;;;;;;;1.60;1.50;;;;;;;18.54;44.64;100688.59;;;;-56
2021/05/08 04:12:02;;;;;;;1.59;1.49;;;;;;;18.54;44.64;100685.91;;;;-54
2021/05/08 04:15:02;;;;;;;1.54;1.40;;;;;;;18.53;44.61;100688.07;;;;-58
2021/05/08 04:18:02;;;;;;;1.65;1.55;;;;;;;18.52;44.65;100684.50;;;;-58
2021/05/08 04:21:02;;;;;;;1.60;1.50;;;;;;;18.52;44.64;100685.96;;;;-58
2021/05/08 04:24:02;;;;;;;1.57;1.47;;;;;;;18.51;44.63;100682.07;;;;-56
2021/05/08 04:27:02;;;;;;;1.53;1.43;;;;;;;18.51;44.66;100680.52;;;;-55
2021/05/08 04:30:02;;;;;;;1.39;1.29;;;;;;;18.51;44.67;100677.33;;;;-54
2021/05/08 04:33:02;;;;;;;1.60;1.50;;;;;;;18.49;44.63;100676.84;;;;-56
2021/05/08 04:36:02;;;;;;;1.57;1.39;;;;;;;18.49;44.64;100678.20;;;;-56
2021/05/08 04:39:02;;;;;;;1.59;1.48;;;;;;;18.48;44.67;100686.39;;;;-57
2021/05/08 04:42:02;;;;;;;1.53;1.43;;;;;;;18.48;44.63;100684.03;;;;-57
2021/05/08 04:45:02;;;;;;;1.43;1.33;;;;;;;18.47;44.65;100685.66;;;;-58
2021/05/08 04:48:02;;;;;;;1.60;1.50;;;;;;;18.47;44.62;100685.25;;;;-57
2021/05/08 04:51:02;;;;;;;1.48;1.38;;;;;;;18.46;44.62;100685.95;;;;-57
2021/05/08 04:54:02;;;;;;;1.42;1.32;;;;;;;18.45;44.67;100685.14;;;;-57
2021/05/08 04:57:02;;;;;;;1.61;1.51;;;;;;;18.45;44.65;100686.36;;;;-55
2021/05/08 05:00:02;;;;;;;1.69;1.50;;;;;;;18.44;44.65;100688.12;;;;-56
2021/05/08 05:03:02;;;;;;;1.47;1.37;;;;;;;18.44;44.66;100685.36;;;;-56
2021/05/08 05:06:02;;;;;;;1.50;1.40;;;;;;;18.44;44.64;100684.79;;;;-54
2021/05/08 05:09:02;;;;;;;1.57;1.47;;;;;;;18.43;44.60;100684.22;;;;-54
2021/05/08 05:12:02;;;;;;;1.61;1.51;;;;;;;18.42;44.64;100681.84;;;;-54
2021/05/08 05:15:02;;;;;;;1.50;1.40;;;;;;;18.42;44.66;100684.77;;;;-55
2021/05/08 05:18:02;;;;;;;1.56;1.46;;;;;;;18.42;44.60;100684.52;;;;-56
2021/05/08 05:21:02;;;;;;;1.49;1.39;;;;;;;18.43;44.64;100687.80;;;;-57
2021/05/08 05:24:02;;;;;;;1.61;1.51;;;;;;;18.44;44.65;100690.15;;;;-57
2021/05/08 05:27:02;;;;;;;1.65;1.55;;;;;;;18.44;44.63;100689.09;;;;-58
2021/05/08 05:30:02;;;;;;;1.40;1.30;;;;;;;18.46;44.64;100689.37;;;;-58
2021/05/08 05:33:02;;;;;;;1.43;1.33;;;;;;;18.46;44.63;100687.82;;;;-55
2021/05/08 05:36:02;;;;;;;1.43;1.33;;;;;;;18.48;44.62;100687.93;;;;-55
2021/05/08 05:39:02;;;;;;;1.50;1.40;;;;;;;18.50;44.68;100691.53;;;;-56
2021/05/08 05:42:02;;;;;;;1.60;1.50;;;;;;;18.52;44.68;100687.75;;;;-57
2021/05/08 05:45:02;;;;;;;1.51;1.41;;;;;;;18.54;44.67;100686.48;;;;-57
2021/05/08 05:48:03;;;;;;;1.50;1.40;;;;;;;18.56;44.67;100683.83;;;;-56
2021/05/08 05:51:02;;;;;;;1.50;1.40;;;;;;;18.59;44.65;100685.91;;;;-57
2021/05/08 05:54:02;;;;;;;1.40;1.30;;;;;;;18.60;44.67;100690.05;;;;-55
2021/05/08 05:57:02;;;;;;;1.35;1.25;;;;;;;18.63;44.67;100693.08;;;;-55
2021/05/08 06:00:02;;;;;;;1.30;1.20;;;;;;;18.64;44.68;100690.27;;;;-55
2021/05/08 06:03:02;;;;;;;1.45;1.35;;;;;;;18.65;44.65;100693.44;;;;-55
2021/05/08 06:06:02;;;;;;;1.47;1.37;;;;;;;18.67;44.66;100691.35;;;;-56
2021/05/08 06:09:02;;;;;;;1.51;1.41;;;;;;;18.68;44.66;100689.76;;;;-55
2021/05/08 06:12:02;;;;;;;1.40;1.30;;;;;;;18.69;44.68;100690.48;;;;-55
2021/05/08 06:15:02;;;;;;;1.50;1.40;;;;;;;18.69;44.65;100694.14;;;;-54
2021/05/08 06:18:02;;;;;;;1.40;1.30;;;;;;;18.70;44.68;100691.66;;;;-58
2021/05/08 06:21:02;;;;;;;1.40;1.30;;;;;;;18.70;44.70;100694.73;;;;-56
2021/05/08 06:24:02;;;;;;;1.41;1.31;;;;;;;18.72;44.66;100695.63;;;;-57
2021/05/08 06:27:02;;;;;;;1.44;1.34;;;;;;;18.72;44.62;100691.56;;;;-58
2021/05/08 06:30:02;;;;;;;1.49;1.39;;;;;;;18.72;44.61;100690.38;;;;-58
2021/05/08 06:33:02;;;;;;;1.30;1.20;;;;;;;18.73;44.61;100690.14;;;;-57
2021/05/08 06:36:02;;;;;;;1.40;1.30;;;;;;;18.72;44.62;100677.39;;;;-54
2021/05/08 06:39:02;;;;;;;1.35;1.25;;;;;;;18.74;44.60;100675.95;;;;-54
2021/05/08 06:42:02;;;;;;;1.40;1.30;;;;;;;18.74;44.62;100677.09;;;;-55
2021/05/08 06:45:02;;;;;;;1.40;1.30;;;;;;;18.74;44.58;100673.77;;;;-53
2021/05/08 06:48:02;;;;;;;1.37;1.27;;;;;;;18.74;44.61;100674.33;;;;-54
2021/05/08 06:51:02;;;;;;;1.40;1.30;;;;;;;18.73;44.58;100667.65;;;;-54
2021/05/08 06:54:02;;;;;;;1.39;1.29;;;;;;;18.74;44.59;100662.53;;;;-53
2021/05/08 06:57:02;;;;;;;1.37;1.27;;;;;;;18.74;44.58;100663.13;;;;-54
2021/05/08 07:00:02;;;;;;;1.31;1.21;;;;;;;18.73;44.60;100663.34;;;;-54
2021/05/08 07:03:02;;;;;;;1.30;1.20;;;;;;;18.73;44.57;100664.89;;;;-54
2021/05/08 07:06:02;;;;;;;1.40;1.30;;;;;;;18.73;44.60;100664.73;;;;-57
2021/05/08 07:09:02;;;;;;;1.35;1.25;;;;;;;18.73;44.59;100662.78;;;;-56
2021/05/08 07:12:02;;;;;;;1.50;1.40;;;;;;;18.73;44.58;100665.62;;;;-54
2021/05/08 07:15:02;;;;;;;1.38;1.30;;;;;;;18.73;44.59;100672.03;;;;-54
2021/05/08 07:18:02;;;;;;;1.32;1.22;;;;;;;18.72;44.58;100673.01;;;;-57
2021/05/08 07:21:02;;;;;;;1.43;1.31;;;;;;;18.72;44.57;100677.72;;;;-56
2021/05/08 07:24:02;;;;;;;1.40;1.30;;;;;;;18.72;44.55;100674.36;;;;-55
2021/05/08 07:27:02;;;;;;;1.40;1.30;;;;;;;18.72;44.54;100673.70;;;;-55
2021/05/08 07:30:02;;;;;;;1.40;1.30;;;;;;;18.72;44.54;100676.14;;;;-56
2021/05/08 07:33:02;;;;;;;1.41;1.31;;;;;;;18.72;44.55;100675.94;;;;-58
2021/05/08 07:36:02;;;;;;;1.40;1.30;;;;;;;18.71;44.55;100678.17;;;;-57
2021/05/08 07:39:02;;;;;;;1.39;1.29;;;;;;;18.71;44.58;100680.04;;;;-57
2021/05/08 07:42:02;;;;;;;1.40;1.30;;;;;;;18.71;44.60;100673.39;;;;-57
2021/05/08 07:45:02;;;;;;;1.35;1.25;;;;;;;18.71;44.55;100672.58;;;;-59
2021/05/08 07:48:02;;;;;;;1.49;1.39;;;;;;;18.71;44.55;100667.30;;;;-54
2021/05/08 07:51:02;;;;;;;1.36;1.26;;;;;;;18.70;44.55;100666.73;;;;-58
2021/05/08 07:54:02;;;;;;;1.22;1.19;;;;;;;18.70;44.55;100665.19;;;;-58
2021/05/08 07:57:02;;;;;;;4.35;1.40;;;;;;;18.70;44.63;100657.56;;;;-50
2021/05/08 08:00:02;;;;;;;2.31;1.38;;;;;;;18.72;44.87;100656.77;;;;-54
2021/05/08 08:03:02;;;;;;;1.43;1.33;;;;;;;18.72;44.98;100655.15;;;;-54
2021/05/08 08:06:02;;;;;;;2.61;1.31;;;;;;;18.74;45.09;100662.70;;;;-54
2021/05/08 08:09:02;;;;;;;1.48;1.36;;;;;;;18.74;45.03;100662.08;;;;-57
2021/05/08 08:12:02;;;;;;;6.53;1.63;;;;;;;18.74;44.75;100656.47;;;;-50
2021/05/08 08:15:02;;;;;;;3.81;2.33;;;;;;;18.60;43.75;100656.37;;;;-57
2021/05/08 08:18:02;;;;;;;4.04;2.85;;;;;;;18.52;43.40;100661.70;;;;-57
2021/05/08 08:21:04;;;;;;;3.24;2.70;;;;;;;18.45;43.22;100660.28;;;;-57
2021/05/08 08:24:02;;;;;;;3.05;2.77;;;;;;;18.39;43.13;100653.17;;;;-59
2021/05/08 08:27:02;;;;;;;3.29;2.91;;;;;;;18.35;43.22;100651.73;;;;-56
2021/05/08 08:30:02;;;;;;;3.39;2.92;;;;;;;18.30;43.11;100651.34;;;;-54
2021/05/08 08:33:02;;;;;;;5.65;2.83;;;;;;;18.29;42.90;100648.16;;;;-58
2021/05/08 08:36:02;;;;;;;3.30;2.99;;;;;;;18.24;43.05;100651.06;;;;-55
2021/05/08 08:39:02;;;;;;;3.99;2.94;;;;;;;18.20;42.91;100648.92;;;;-53
2021/05/08 08:42:02;;;;;;;4.35;2.96;;;;;;;18.18;42.71;100646.95;;;;-54
2021/05/08 08:45:02;;;;;;;3.88;2.87;;;;;;;18.17;42.96;100647.25;;;;-52
2021/05/08 08:48:02;;;;;;;3.58;3.05;;;;;;;18.16;42.97;100642.91;;;;-57
2021/05/08 08:51:02;;;;;;;4.01;3.15;;;;;;;18.14;43.12;100637.40;;;;-57
2021/05/08 08:54:02;;;;;;;4.01;2.92;;;;;;;18.15;43.18;100633.59;;;;-58
2021/05/08 08:57:04;;;;;;;3.25;2.70;;;;;;;18.14;43.25;100634.48;;;;-59
2021/05/08 09:00:02;;;;;;;3.67;3.00;;;;;;;18.13;43.30;100630.23;;;;-55
2021/05/08 09:03:03;;;;;;;3.68;2.77;;;;;;;18.13;43.40;100626.02;;;;-55
2021/05/08 09:06:02;;;;;;;3.55;2.75;;;;;;;18.18;43.54;100624.73;;;;-51
2021/05/08 09:09:02;;;;;;;2.85;2.37;;;;;;;18.25;43.62;100614.92;;;;-45
2021/05/08 09:12:02;;;;;;;4.50;2.34;;;;;;;18.33;43.68;100615.68;;;;-51
2021/05/08 09:15:02;;;;;;;5.13;2.27;;;;;;;18.40;43.66;100608.14;;;;-46
2021/05/08 09:18:02;;;;;;;2.19;1.98;;;;;;;18.45;43.73;100607.86;;;;-48
2021/05/08 09:21:02;;;;;;;2.59;2.01;;;;;;;18.52;43.70;100602.61;;;;-49
2021/05/08 09:24:02;;;;;;;2.19;1.88;;;;;;;18.57;43.73;100600.02;;;;-53
2021/05/08 09:27:02;;;;;;;3.18;1.89;;;;;;;18.61;43.74;100601.25;;;;-53
2021/05/08 09:30:02;;;;;;;2.27;1.80;;;;;;;18.65;43.76;100595.78;;;;-51
2021/05/08 09:33:03;;;;;;;2.37;1.75;;;;;;;18.70;43.78;100595.70;;;;-53
2021/05/08 09:36:02;;;;;;;2.33;1.88;;;;;;;18.76;43.79;100589.44;;;;-53
2021/05/08 09:39:02;;;;;;;3.23;1.90;;;;;;;18.82;43.76;100584.97;;;;-51
2021/05/08 09:42:02;;;;;;;1.81;1.71;;;;;;;18.85;43.83;100583.47;;;;-51
2021/05/08 09:45:02;;;;;;;2.67;1.79;;;;;;;18.90;43.85;100576.20;;;;-55
2021/05/08 09:48:02;;;;;;;1.91;1.71;;;;;;;18.93;43.82;100571.78;;;;-51
2021/05/08 09:51:02;;;;;;;2.70;1.53;;;;;;;18.97;43.83;100568.01;;;;-51
2021/05/08 09:54:02;;;;;;;1.93;1.69;;;;;;;19.02;43.87;100568.13;;;;-52
2021/05/08 09:57:02;;;;;;;2.66;1.79;;;;;;;19.05;43.85;100562.30;;;;-49
2021/05/08 10:00:02;;;;;;;1.96;1.75;;;;;;;19.07;43.89;100555.93;;;;-49
2021/05/08 10:03:02;;;;;;;2.00;1.80;;;;;;;19.11;43.87;100542.78;;;;-52
2021/05/08 10:06:02;;;;;;;1.89;1.71;;;;;;;19.13;43.85;100540.04;;;;-52
2021/05/08 10:09:02;;;;;;;1.95;1.68;;;;;;;19.15;43.87;100539.03;;;;-52
2021/05/08 10:12:02;;;;;;;1.85;1.73;;;;;;;19.18;43.91;100535.87;;;;-52
2021/05/08 10:15:02;;;;;;;2.08;1.60;;;;;;;19.18;43.85;100539.85;;;;-52
2021/05/08 10:18:02;;;;;;;1.99;1.69;;;;;;;19.21;43.80;100535.00;;;;-54
2021/05/08 10:21:02;;;;;;;1.59;1.49;;;;;;;19.22;43.76;100528.03;;;;-52
2021/05/08 10:24:02;;;;;;;1.56;1.46;;;;;;;19.23;43.83;100531.77;;;;-52
2021/05/08 10:27:02;;;;;;;2.17;1.61;;;;;;;19.24;43.84;100525.05;;;;-54
2021/05/08 10:30:02;;;;;;;2.22;1.71;;;;;;;19.25;43.80;100518.45;;;;-49
2021/05/08 10:33:02;;;;;;;1.75;1.65;;;;;;;19.25;43.81;100513.33;;;;-55
2021/05/08 10:36:02;;;;;;;2.59;1.54;;;;;;;19.26;43.76;100504.17;;;;-54
2021/05/08 10:39:02;;;;;;;1.71;1.60;;;;;;;19.27;43.78;100495.72;;;;-54
2021/05/08 10:42:02;;;;;;;2.12;1.55;;;;;;;19.27;43.79;100483.20;;;;-54
2021/05/08 10:45:02;;;;;;;1.65;1.55;;;;;;;19.28;43.75;100487.11;;;;-54
2021/05/08 10:48:03;;;;;;;1.63;1.53;;;;;;;19.28;43.73;100486.16;;;;-51
2021/05/08 10:51:02;;;;;;;2.63;1.68;;;;;;;19.27;43.93;100489.14;;;;-54
2021/05/08 10:54:02;;;;;;;2.99;1.52;;;;;;;19.26;43.88;100485.98;;;;-52
2021/05/08 10:57:02;;;;;;;2.01;1.60;;;;;;;19.27;43.83;100483.70;;;;-52
2021/05/08 11:00:02;;;;;;;1.99;1.58;;;;;;;19.27;43.83;100477.84;;;;-54
2021/05/08 11:04:02;;;;;;;3.85;1.65;;;;;;;19.27;43.68;100472.16;;;;-49
2021/05/08 11:07:02;;;;;;;2.17;1.47;;;;;;;19.30;43.94;100469.73;;;;-52
2021/05/08 11:10:02;;;;;;;2.06;1.50;;;;;;;19.33;44.03;100467.00;;;;-50
2021/05/08 11:13:02;;;;;;;1.68;1.58;;;;;;;19.36;44.10;100459.13;;;;-52
2021/05/08 11:16:04;;;;;;;1.81;1.60;;;;;;;19.38;44.10;100456.70;;;;-59
2021/05/08 11:19:02;;;;;;;1.71;1.61;;;;;;;19.39;44.16;100458.19;;;;-59
2021/05/08 11:22:02;;;;;;;1.83;1.53;;;;;;;19.40;44.20;100461.30;;;;-60
2021/05/08 11:25:02;;;;;;;3.44;1.50;;;;;;;19.42;44.16;100457.22;;;;-55
2021/05/08 11:28:02;;;;;;;1.88;1.56;;;;;;;19.44;44.25;100454.31;;;;-59
2021/05/08 11:31:02;;;;;;;1.60;1.50;;;;;;;19.43;44.00;100439.69;;;;-58
2021/05/08 11:34:02;;;;;;;1.61;1.50;;;;;;;19.43;44.03;100433.03;;;;-57
2021/05/08 11:37:02;;;;;;;1.75;1.57;;;;;;;19.43;44.15;100432.63;;;;-60
2021/05/08 11:40:02;;;;;;;1.59;1.44;;;;;;;19.44;44.15;100430.17;;;;-53
2021/05/08 11:43:02;;;;;;;2.31;1.59;;;;;;;19.44;44.30;100424.32;;;;-56
2021/05/08 11:46:02;;;;;;;2.62;1.62;;;;;;;19.44;44.37;100415.98;;;;-53
2021/05/08 11:49:02;;;;;;;2.69;1.49;;;;;;;19.45;44.39;100419.55;;;;-53
2021/05/08 11:52:02;;;;;;;2.01;1.52;;;;;;;19.46;44.36;100413.94;;;;-48
2021/05/08 11:55:02;;;;;;;3.25;1.51;;;;;;;19.46;44.26;100414.04;;;;-48
2021/05/08 11:58:02;;;;;;;2.35;1.53;;;;;;;19.47;44.29;100407.61;;;;-53
2021/05/08 12:01:02;;;;;;;1.52;1.42;;;;;;;19.48;44.28;100404.11;;;;-58
2021/05/08 12:04:02;;;;;;;2.15;1.40;;;;;;;19.49;44.43;100406.89;;;;-51
2021/05/08 12:07:02;;;;;;;1.62;1.40;;;;;;;19.49;44.45;100402.75;;;;-58
2021/05/08 12:10:02;;;;;;;2.53;1.45;;;;;;;19.49;44.37;100397.70;;;;-54
2021/05/08 12:13:02;;;;;;;1.67;1.57;;;;;;;19.51;44.39;100394.31;;;;-45
2021/05/08 12:16:03;;;;;;;1.67;1.50;;;;;;;19.52;44.46;100388.53;;;;-58
2021/05/08 12:19:02;;;;;;;1.57;1.44;;;;;;;19.52;44.52;100384.47;;;;-44
2021/05/08 12:22:02;;;;;;;1.95;1.41;;;;;;;19.52;44.48;100384.30;;;;-46
2021/05/08 12:25:03;;;;;;;1.63;1.49;;;;;;;19.54;44.62;100378.79;;;;-46
2021/05/08 12:28:02;;;;;;;1.61;1.40;;;;;;;19.53;44.31;100371.80;;;;-51
2021/05/08 12:31:02;;;;;;;1.53;1.40;;;;;;;19.53;44.24;100368.64;;;;-46
2021/05/08 12:34:02;;;;;;;3.26;1.39;;;;;;;19.51;44.36;100359.19;;;;-52
2021/05/08 12:37:02;;;;;;;2.26;1.68;;;;;;;19.52;44.43;100368.22;;;;-56
2021/05/08 12:40:02;;;;;;;3.07;1.47;;;;;;;19.51;44.38;100367.24;;;;-54
2021/05/08 12:43:02;;;;;;;1.92;1.51;;;;;;;19.51;44.31;100358.44;;;;-53
2021/05/08 12:46:02;;;;;;;3.42;1.47;;;;;;;19.51;44.30;100352.27;;;;-52
2021/05/08 12:49:02;;;;;;;2.15;1.57;;;;;;;19.50;44.37;100354.30;;;;-54
2021/05/08 12:52:02;;;;;;;3.51;1.50;;;;;;;19.51;44.32;100357.00;;;;-48
2021/05/08 12:55:02;;;;;;;2.55;1.50;;;;;;;19.51;44.39;100344.78;;;;-50
2021/05/08 12:58:02;;;;;;;2.05;1.50;;;;;;;19.51;44.32;100334.88;;;;-52
2021/05/08 13:01:02;;;;;;;2.97;1.50;;;;;;;19.50;44.39;100320.97;;;;-56
2021/05/08 13:04:02;;;;;;;1.58;1.45;;;;;;;19.52;44.32;100317.98;;;;-52
2021/05/08 13:07:02;;;;;;;1.74;1.42;;;;;;;19.52;44.30;100316.77;;;;-54
2021/05/08 13:10:02;;;;;;;4.52;1.50;;;;;;;19.52;44.37;100310.18;;;;-54
2021/05/08 13:13:02;;;;;;;2.55;1.39;;;;;;;19.53;44.36;100307.08;;;;-54
2021/05/08 13:16:02;;;;;;;1.53;1.43;;;;;;;19.52;44.39;100300.66;;;;-55
2021/05/08 13:19:02;;;;;;;3.68;1.53;;;;;;;19.53;44.39;100299.62;;;;-53
2021/05/08 13:22:02;;;;;;;1.44;1.34;;;;;;;19.54;44.29;100297.51;;;;-56
2021/05/08 13:25:02;;;;;;;1.66;1.45;;;;;;;19.53;44.30;100288.16;;;;-54
2021/05/08 13:28:02;;;;;;;1.52;1.42;;;;;;;19.54;44.27;100283.36;;;;-58
2021/05/08 13:31:02;;;;;;;1.42;1.31;;;;;;;19.54;44.30;100281.73;;;;-51
2021/05/08 13:34:02;;;;;;;1.77;1.42;;;;;;;19.54;44.30;100279.55;;;;-62
2021/05/08 13:37:02;;;;;;;3.99;1.46;;;;;;;19.57;44.41;100268.08;;;;-54
2021/05/08 13:40:02;;;;;;;3.27;1.39;;;;;;;19.56;44.25;100262.16;;;;-54
2021/05/08 13:43:02;;;;;;;1.59;1.32;;;;;;;19.55;44.20;100258.34;;;;-54
2021/05/08 13:46:02;;;;;;;1.49;1.39;;;;;;;19.54;44.22;100254.50;;;;-51
2021/05/08 13:49:02;;;;;;;1.50;1.40;;;;;;;19.54;44.20;100247.77;;;;-51
2021/05/08 13:52:02;;;;;;;2.47;1.50;;;;;;;19.53;44.19;100237.94;;;;-50
2021/05/08 13:55:02;;;;;;;1.50;1.40;;;;;;;19.53;44.14;100237.45;;;;-51
2021/05/08 13:58:02;;;;;;;2.00;1.46;;;;;;;19.52;44.14;100235.40;;;;-52
2021/05/08 14:01:02;;;;;;;1.48;1.37;;;;;;;19.51;44.13;100228.83;;;;-51
2021/05/08 14:04:02;;;;;;;1.42;1.30;;;;;;;19.51;44.13;100225.01;;;;-53
2021/05/08 14:07:02;;;;;;;1.37;1.27;;;;;;;19.50;44.09;100224.18;;;;-52
2021/05/08 14:10:02;;;;;;;1.58;1.32;;;;;;;19.50;44.09;100217.59;;;;-50
2021/05/08 14:13:02;;;;;;;1.58;1.37;;;;;;;19.50;44.09;100213.20;;;;-50
2021/05/08 14:16:02;;;;;;;1.45;1.34;;;;;;;19.51;44.37;100212.95;;;;-49
2021/05/08 14:19:02;;;;;;;3.07;1.45;;;;;;;19.51;44.53;100211.27;;;;-52
2021/05/08 14:22:02;;;;;;;1.50;1.40;;;;;;;19.52;44.59;100209.31;;;;-53
2021/05/08 14:25:02;;;;;;;2.73;1.36;;;;;;;19.52;44.61;100206.70;;;;-58
2021/05/08 14:28:02;;;;;;;2.33;1.33;;;;;;;19.56;44.65;100202.25;;;;-61
2021/05/08 14:31:02;;;;;;;3.27;1.53;;;;;;;19.54;44.35;100200.45;;;;-44
2021/05/08 14:34:02;;;;;;;1.61;1.51;;;;;;;19.53;44.49;100203.39;;;;-51
2021/05/08 14:37:04;;;;;;;2.31;1.64;;;;;;;19.53;44.34;100196.00;;;;-50
2021/05/08 14:40:02;;;;;;;3.39;1.40;;;;;;;19.53;44.45;100191.36;;;;-51
2021/05/08 14:43:02;;;;;;;2.23;1.29;;;;;;;19.52;44.39;100186.95;;;;-50
2021/05/08 14:46:02;;;;;;;2.92;1.55;;;;;;;19.52;44.42;100177.78;;;;-50
2021/05/08 14:49:02;;;;;;;2.41;1.40;;;;;;;19.52;44.35;100169.97;;;;-50
2021/05/08 14:52:02;;;;;;;2.37;1.40;;;;;;;19.52;44.30;100164.36;;;;-54
2021/05/08 14:55:02;;;;;;;3.17;1.39;;;;;;;19.52;44.28;100162.33;;;;-51
2021/05/08 14:58:02;;;;;;;1.79;1.29;;;;;;;19.52;44.36;100161.52;;;;-51
2021/05/08 15:01:02;;;;;;;1.50;1.40;;;;;;;19.53;44.42;100159.83;;;;-49
2021/05/08 15:04:02;;;;;;;1.48;1.31;;;;;;;19.53;44.44;100151.14;;;;-54
2021/05/08 15:07:02;;;;;;;1.75;1.32;;;;;;;19.53;44.36;100150.16;;;;-53
2021/05/08 15:10:02;;;;;;;1.55;1.30;;;;;;;19.53;44.37;100143.33;;;;-57
2021/05/08 15:13:02;;;;;;;3.32;1.36;;;;;;;19.55;44.30;100142.44;;;;-57
2021/05/08 15:16:02;;;;;;;3.51;1.57;;;;;;;19.55;44.32;100134.88;;;;-59
2021/05/08 15:19:02;;;;;;;1.96;1.40;;;;;;;19.57;44.36;100136.56;;;;-57
2021/05/08 15:22:02;;;;;;;1.85;1.27;;;;;;;19.58;44.36;100135.44;;;;-56
2021/05/08 15:25:02;;;;;;;1.47;1.19;;;;;;;19.59;44.35;100132.61;;;;-55
2021/05/08 15:28:02;;;;;;;4.86;1.35;;;;;;;19.59;44.33;100125.05;;;;-53
2021/05/08 15:31:02;;;;;;;1.38;1.28;;;;;;;19.60;44.38;100121.47;;;;-60
2021/05/08 15:34:02;;;;;;;3.71;1.36;;;;;;;19.61;44.48;100118.77;;;;-55
2021/05/08 15:37:02;;;;;;;3.71;1.54;;;;;;;19.61;44.53;100114.80;;;;-52
2021/05/08 15:40:02;;;;;;;2.20;1.30;;;;;;;19.61;44.58;100112.69;;;;-52
2021/05/08 15:43:02;;;;;;;1.90;1.32;;;;;;;19.62;44.60;100110.16;;;;-52
2021/05/08 15:46:02;;;;;;;3.18;1.30;;;;;;;19.62;44.61;100098.53;;;;-49
2021/05/08 15:49:04;;;;;;;1.44;1.34;;;;;;;19.63;44.59;100097.41;;;;-51
2021/05/08 15:52:03;;;;;;;1.53;1.26;;;;;;;19.64;44.60;100094.48;;;;-52
2021/05/08 15:55:02;;;;;;;1.40;1.30;;;;;;;19.65;44.65;100095.59;;;;-50
2021/05/08 15:58:02;;;;;;;3.61;1.28;;;;;;;19.66;44.71;100089.84;;;;-57
2021/05/08 16:01:02;;;;;;;2.39;1.33;;;;;;;19.66;44.67;100092.61;;;;-54
2021/05/08 16:04:03;;;;;;;4.07;1.33;;;;;;;19.68;44.82;100093.98;;;;-59
2021/05/08 16:07:02;;;;;;;2.42;1.29;;;;;;;19.68;44.57;100089.92;;;;-58
2021/05/08 16:10:03;;;;;;;2.83;1.33;;;;;;;19.68;44.49;100090.17;;;;-59
2021/05/08 16:13:02;;;;;;;1.33;1.21;;;;;;;19.67;44.44;100087.95;;;;-57
2021/05/08 16:16:02;;;;;;;1.77;1.18;;;;;;;19.66;44.43;100082.70;;;;-53
2021/05/08 16:19:02;;;;;;;1.79;1.31;;;;;;;19.65;44.40;100080.56;;;;-58
2021/05/08 16:22:02;;;;;;;1.43;1.33;;;;;;;19.64;44.40;100075.94;;;;-57
2021/05/08 16:25:02;;;;;;;1.37;1.20;;;;;;;19.62;44.39;100071.88;;;;-55
2021/05/08 16:28:02;;;;;;;1.44;1.31;;;;;;;19.62;44.40;100071.16;;;;-54
2021/05/08 16:31:02;;;;;;;1.30;1.20;;;;;;;19.61;44.38;100063.98;;;;-55
2021/05/08 16:34:02;;;;;;;1.35;1.25;;;;;;;19.60;44.38;100060.02;;;;-56
2021/05/08 16:37:02;;;;;;;1.47;1.31;;;;;;;19.59;44.37;100060.59;;;;-55
2021/05/08 16:40:02;;;;;;;1.55;1.29;;;;;;;19.59;44.35;100059.34;;;;-53
2021/05/08 16:43:02;;;;;;;1.44;1.16;;;;;;;19.59;44.38;100055.13;;;;-57